createdAt,value
2017-08-30T00:01:36.809Z,81.40
2017-08-30T00:04:04.448Z,81.60
2017-08-30T00:06:31.924Z,81.80
2017-08-30T00:08:59.379Z,82.00
2017-08-30T00:11:26.873Z,81.90
2017-08-30T00:13:54.338Z,81.60
2017-08-30T00:16:21.793Z,81.80
2017-08-30T00:18:49.267Z,82.00
2017-08-30T00:21:16.749Z,81.80
2017-08-30T00:23:44.284Z,81.20
2017-08-30T00:26:29.429Z,81.20
2017-08-30T00:28:56.884Z,81.60
2017-08-30T00:31:24.424Z,81.50
2017-08-30T00:33:51.971Z,81.50
2017-08-30T00:36:19.512Z,82.00
2017-08-30T00:38:47.067Z,81.20
2017-08-30T00:41:14.531Z,81.80
2017-08-30T00:43:41.989Z,80.80
2017-08-30T00:46:09.444Z,81.70
2017-08-30T00:48:37.028Z,80.80
2017-08-30T00:51:04.586Z,81.20
2017-08-30T00:53:32.119Z,80.80
2017-08-30T00:55:59.757Z,80.80
2017-08-30T00:58:27.215Z,81.20
2017-08-30T01:00:54.752Z,80.80
2017-08-30T01:03:22.396Z,80.90
2017-08-30T01:05:49.936Z,81.20
2017-08-30T01:08:17.480Z,81.00
2017-08-30T01:10:44.975Z,81.40
2017-08-30T01:13:12.456Z,80.80
2017-08-30T01:15:39.915Z,80.90
2017-08-30T01:18:07.407Z,81.90
2017-08-30T01:20:34.868Z,81.30
2017-08-30T01:23:02.427Z,81.70
2017-08-30T01:25:29.924Z,82.50
2017-08-30T01:27:57.401Z,83.40
2017-08-30T01:30:24.856Z,83.00
2017-08-30T01:32:52.580Z,83.10
2017-08-30T01:35:20.144Z,82.60
2017-08-30T01:37:47.693Z,82.10
2017-08-30T01:40:15.231Z,82.70
2017-08-30T01:42:42.780Z,81.70
2017-08-30T01:45:10.236Z,82.90
2017-08-30T01:47:37.759Z,82.40
2017-08-30T01:50:05.308Z,83.10
2017-08-30T01:52:32.853Z,84.00
2017-08-30T01:55:00.395Z,83.60
2017-08-30T01:57:28.620Z,85.20
2017-08-30T01:59:56.195Z,84.30
2017-08-30T02:02:23.655Z,85.00
2017-08-30T02:04:51.871Z,85.10
2017-08-30T02:07:19.360Z,85.00
2017-08-30T02:09:46.820Z,84.80
2017-08-30T02:12:14.341Z,85.10
2017-08-30T02:14:41.867Z,85.80
2017-08-30T02:17:09.407Z,85.90
2017-08-30T02:19:37.059Z,85.90
2017-08-30T02:22:04.604Z,86.30
2017-08-30T02:24:32.147Z,86.40
2017-08-30T02:26:59.682Z,86.40
2017-08-30T02:29:27.235Z,86.50
2017-08-30T02:31:54.768Z,87.10
2017-08-30T02:34:22.329Z,87.60
2017-08-30T02:36:49.779Z,88.00
2017-08-30T02:39:17.239Z,88.40
2017-08-30T02:41:44.740Z,88.10
2017-08-30T02:44:12.263Z,88.30
2017-08-30T02:46:39.875Z,89.30
2017-08-30T02:49:07.336Z,88.20
2017-08-30T02:51:34.795Z,88.30
2017-08-30T02:54:02.259Z,88.70
2017-08-30T02:56:29.927Z,89.30
2017-08-30T02:58:57.443Z,89.70
2017-08-30T03:01:24.983Z,90.00
2017-08-30T03:03:52.635Z,89.80
2017-08-30T03:06:20.177Z,89.90
2017-08-30T03:08:47.719Z,89.90
2017-08-30T03:11:15.364Z,90.20
2017-08-30T03:13:42.909Z,90.20
2017-08-30T03:16:10.452Z,90.00
2017-08-30T03:18:38.000Z,90.40
2017-08-30T03:21:05.459Z,90.30
2017-08-30T03:23:32.919Z,90.80
2017-08-30T03:26:00.420Z,91.00
2017-08-30T03:28:28.072Z,91.00
2017-08-30T03:30:55.613Z,90.90
2017-08-30T03:33:23.156Z,91.00
2017-08-30T03:35:50.648Z,91.00
2017-08-30T03:38:18.152Z,90.90
2017-08-30T03:40:45.613Z,91.10
2017-08-30T03:43:13.120Z,91.40
2017-08-30T03:45:40.580Z,91.40
2017-08-30T03:48:08.031Z,91.50
2017-08-30T03:50:35.819Z,91.50
2017-08-30T03:53:03.278Z,91.40
2017-08-30T03:55:30.827Z,91.40
2017-08-30T03:57:58.311Z,91.60
2017-08-30T04:00:25.807Z,91.60
2017-08-30T04:02:53.356Z,91.50
2017-08-30T04:05:20.897Z,91.70
2017-08-30T04:07:48.435Z,92.30
2017-08-30T04:10:15.980Z,92.10
2017-08-30T04:12:43.452Z,92.30
2017-08-30T04:15:10.932Z,92.20
2017-08-30T04:17:38.508Z,92.30
2017-08-30T04:20:05.973Z,92.20
2017-08-30T04:22:33.531Z,92.30
2017-08-30T04:25:01.240Z,92.50
2017-08-30T04:27:28.787Z,92.50
2017-08-30T04:29:56.255Z,92.50
2017-08-30T04:32:23.800Z,92.70
2017-08-30T04:34:51.352Z,92.80
2017-08-30T04:37:19.191Z,92.80
2017-08-30T04:39:46.680Z,92.80
2017-08-30T04:42:14.175Z,92.90
2017-08-30T04:44:41.756Z,93.10
2017-08-30T04:47:09.264Z,93.30
2017-08-30T04:49:36.723Z,93.30
2017-08-30T04:52:04.205Z,93.20
2017-08-30T04:54:31.763Z,93.10
2017-08-30T04:56:59.219Z,93.00
2017-08-30T04:59:27.600Z,93.00
2017-08-30T05:01:55.059Z,93.00
2017-08-30T05:04:22.560Z,93.10
2017-08-30T05:06:50.195Z,93.30
2017-08-30T05:09:17.740Z,93.20
2017-08-30T05:11:45.285Z,93.10
2017-08-30T05:14:13.298Z,93.30
2017-08-30T05:16:40.763Z,93.00
2017-08-30T05:19:08.327Z,92.80
2017-08-30T05:21:35.869Z,92.70
2017-08-30T05:24:03.451Z,92.90
2017-08-30T05:26:30.962Z,93.30
2017-08-30T05:28:58.504Z,92.90
2017-08-30T05:31:26.761Z,93.00
2017-08-30T05:33:54.291Z,92.90
2017-08-30T05:36:21.844Z,93.00
2017-08-30T05:38:49.388Z,93.00
2017-08-30T05:41:16.941Z,92.90
2017-08-30T05:43:44.393Z,92.90
2017-08-30T05:46:11.847Z,92.90
2017-08-30T05:48:39.376Z,92.90
2017-08-30T05:51:06.832Z,92.90
2017-08-30T05:53:34.287Z,93.20
2017-08-30T05:56:01.905Z,93.10
2017-08-30T05:58:29.443Z,93.00
2017-08-30T06:00:56.899Z,92.60
2017-08-30T06:03:24.528Z,92.50
2017-08-30T06:05:51.985Z,92.70
2017-08-30T06:08:19.444Z,92.90
2017-08-30T06:10:47.163Z,92.30
2017-08-30T06:13:14.626Z,92.10
2017-08-30T06:15:42.149Z,92.20
2017-08-30T06:18:09.770Z,91.80
2017-08-30T06:20:37.344Z,91.40
2017-08-30T06:23:04.801Z,91.40
2017-08-30T06:25:32.324Z,91.40
2017-08-30T06:27:59.867Z,91.30
2017-08-30T06:30:27.327Z,91.30
2017-08-30T06:32:54.795Z,91.60
2017-08-30T06:35:22.252Z,91.40
2017-08-30T06:37:49.841Z,91.20
2017-08-30T06:40:17.376Z,90.80
2017-08-30T06:42:44.919Z,90.20
2017-08-30T06:45:12.388Z,90.30
2017-08-30T06:47:39.913Z,90.00
2017-08-30T06:50:07.404Z,89.30
2017-08-30T06:52:34.915Z,88.80
2017-08-30T06:55:02.456Z,88.80
2017-08-30T06:57:29.963Z,87.50
2017-08-30T06:59:57.435Z,88.20
2017-08-30T07:02:24.984Z,86.80
2017-08-30T07:04:52.447Z,86.20
2017-08-30T07:07:19.972Z,87.20
2017-08-30T07:09:47.521Z,87.00
2017-08-30T07:12:15.064Z,85.80
2017-08-30T07:14:42.599Z,86.00
2017-08-30T07:17:10.068Z,85.60
2017-08-30T07:19:37.524Z,85.10
2017-08-30T07:22:05.030Z,83.80
2017-08-30T07:24:32.572Z,83.40
2017-08-30T07:27:00.124Z,82.10
2017-08-30T07:29:27.655Z,81.20
2017-08-30T07:31:55.204Z,82.10
2017-08-30T07:34:22.740Z,82.00
2017-08-30T07:36:50.389Z,82.80
2017-08-30T07:39:18.036Z,81.80
2017-08-30T07:41:45.584Z,81.90
2017-08-30T07:44:13.128Z,81.10
2017-08-30T07:46:40.667Z,81.10
2017-08-30T07:49:08.161Z,80.40
2017-08-30T07:51:35.620Z,80.20
2017-08-30T07:54:03.186Z,80.10
2017-08-30T07:56:30.928Z,79.90
2017-08-30T07:58:58.385Z,80.10
2017-08-30T08:01:25.844Z,79.70
2017-08-30T08:03:53.355Z,78.80
2017-08-30T08:06:20.820Z,77.70
2017-08-30T08:08:48.275Z,79.10
2017-08-30T08:11:15.919Z,79.30
2017-08-30T08:13:43.432Z,79.20
2017-08-30T08:16:10.888Z,79.80
2017-08-30T08:18:38.420Z,82.20
2017-08-30T08:21:05.955Z,81.30
2017-08-30T08:23:33.600Z,80.30
2017-08-30T08:26:01.059Z,82.80
2017-08-30T08:28:28.585Z,79.00
2017-08-30T08:30:56.334Z,79.00
2017-08-30T08:33:23.875Z,77.70
2017-08-30T08:35:51.425Z,77.80
2017-08-30T08:38:18.970Z,77.40
2017-08-30T08:40:46.511Z,74.50
2017-08-30T08:43:14.063Z,72.50
2017-08-30T08:45:41.819Z,72.20
2017-08-30T08:48:10.063Z,71.60
2017-08-30T08:50:38.306Z,71.70
2017-08-30T08:53:05.852Z,71.60
2017-08-30T08:55:33.396Z,66.00
2017-08-30T08:58:00.852Z,65.50
2017-08-30T09:00:28.376Z,68.10
2017-08-30T09:02:55.919Z,65.50
2017-08-30T09:05:23.478Z,65.90
2017-08-30T09:07:51.008Z,66.40
2017-08-30T09:10:18.527Z,67.10
2017-08-30T09:12:46.004Z,68.40
2017-08-30T09:15:13.544Z,66.30
2017-08-30T09:17:41.089Z,68.30
2017-08-30T09:20:08.624Z,66.20
2017-08-30T09:22:36.101Z,65.70
2017-08-30T09:25:03.637Z,66.40
2017-08-30T09:27:31.152Z,66.30
2017-08-30T09:29:58.802Z,68.10
2017-08-30T09:32:26.344Z,65.20
2017-08-30T09:34:53.808Z,66.60
2017-08-30T09:37:21.328Z,66.50
2017-08-30T09:39:48.867Z,67.70
2017-08-30T09:42:16.420Z,67.60
2017-08-30T09:44:43.872Z,68.70
2017-08-30T09:47:11.344Z,69.10
2017-08-30T09:49:38.840Z,70.40
2017-08-30T09:52:06.383Z,68.60
2017-08-30T09:54:33.923Z,71.60
2017-08-30T09:57:01.464Z,73.50
2017-08-30T09:59:29.211Z,75.50
2017-08-30T10:01:56.675Z,79.50
2017-08-30T10:04:24.135Z,80.90
2017-08-30T10:06:51.780Z,80.70
2017-08-30T10:09:19.283Z,82.00
2017-08-30T10:11:46.739Z,83.70
2017-08-30T10:14:14.212Z,82.80
2017-08-30T10:16:41.671Z,84.60
2017-08-30T10:19:09.152Z,86.90
2017-08-30T10:21:36.635Z,88.60
2017-08-30T10:24:04.124Z,89.20
2017-08-30T10:26:31.679Z,89.30
2017-08-30T10:28:59.436Z,88.20
2017-08-30T10:31:26.981Z,89.10
2017-08-30T10:33:54.432Z,89.10
2017-08-30T10:36:21.955Z,90.20
2017-08-30T10:38:49.699Z,90.60
2017-08-30T10:41:17.251Z,89.90
2017-08-30T10:43:44.792Z,90.00
2017-08-30T10:46:13.197Z,90.30
2017-08-30T10:48:40.710Z,90.30
2017-08-30T10:51:08.251Z,90.50
2017-08-30T10:53:35.724Z,90.70
2017-08-30T10:56:03.446Z,89.90
2017-08-30T10:58:30.891Z,89.50
2017-08-30T11:00:58.432Z,89.40
2017-08-30T11:03:25.891Z,87.70
2017-08-30T11:05:53.411Z,89.10
2017-08-30T11:08:20.959Z,86.70
2017-08-30T11:10:48.505Z,86.80
2017-08-30T11:13:15.997Z,87.00
2017-08-30T11:15:43.452Z,85.50
2017-08-30T11:18:10.926Z,84.50
2017-08-30T11:20:38.563Z,85.30
2017-08-30T11:23:06.028Z,83.60
2017-08-30T11:25:33.487Z,82.10
2017-08-30T11:28:00.999Z,80.40
2017-08-30T11:30:28.454Z,76.40
2017-08-30T11:32:55.983Z,76.50
2017-08-30T11:35:23.727Z,71.40
2017-08-30T11:37:51.188Z,69.90
2017-08-30T11:40:18.649Z,66.30
2017-08-30T11:42:46.155Z,64.60
2017-08-30T11:45:13.695Z,65.30
2017-08-30T11:47:41.239Z,63.40
2017-08-30T11:50:08.795Z,63.60
2017-08-30T11:52:36.344Z,63.80
2017-08-30T11:55:04.146Z,62.20
2017-08-30T11:57:31.636Z,63.40
2017-08-30T11:59:59.203Z,62.30
2017-08-30T12:02:26.719Z,59.80
2017-08-30T12:04:54.265Z,58.90
2017-08-30T12:07:21.812Z,55.90
2017-08-30T12:09:49.300Z,55.40
2017-08-30T12:12:16.795Z,54.70
2017-08-30T12:14:44.256Z,53.50
2017-08-30T12:17:11.753Z,52.90
2017-08-30T12:19:39.217Z,51.80
2017-08-30T12:22:06.759Z,52.30
2017-08-30T12:24:34.304Z,51.60
2017-08-30T12:27:01.764Z,51.40
2017-08-30T12:29:29.221Z,51.80
2017-08-30T12:31:56.747Z,53.10
2017-08-30T12:34:24.333Z,55.10
2017-08-30T12:36:57.568Z,55.90
2017-08-30T12:39:30.760Z,57.70
2017-08-30T12:41:58.372Z,58.40
2017-08-30T12:44:25.836Z,58.10
2017-08-30T12:46:53.296Z,59.40
2017-08-30T12:49:21.032Z,59.60
2017-08-30T12:51:48.579Z,59.90
2017-08-30T12:54:16.044Z,59.20
2017-08-30T12:56:43.572Z,57.90
2017-08-30T12:59:11.027Z,56.90
2017-08-30T13:01:38.551Z,55.60
2017-08-30T13:04:06.293Z,55.20
2017-08-30T13:06:33.751Z,54.90
2017-08-30T13:09:01.280Z,54.00
2017-08-30T13:11:28.824Z,53.90
2017-08-30T13:13:56.364Z,54.40
2017-08-30T13:16:23.916Z,54.40
2017-08-30T13:18:52.267Z,53.70
2017-08-30T13:21:19.920Z,53.70
2017-08-30T13:23:47.464Z,53.50
2017-08-30T13:26:15.105Z,52.50
2017-08-30T13:28:42.655Z,53.00
2017-08-30T13:31:10.299Z,53.60
2017-08-30T13:33:37.847Z,53.80
2017-08-30T13:36:05.402Z,53.00
2017-08-30T13:38:32.928Z,52.90
2017-08-30T13:41:00.472Z,52.90
2017-08-30T13:43:27.939Z,53.00
2017-08-30T13:45:55.412Z,53.70
2017-08-30T13:48:22.900Z,52.80
2017-08-30T13:50:50.441Z,53.80
2017-08-30T13:53:17.988Z,52.80
2017-08-30T13:55:45.536Z,53.00
2017-08-30T13:58:13.072Z,52.10
2017-08-30T14:00:40.548Z,50.70
2017-08-30T14:03:08.060Z,50.70
2017-08-30T14:05:35.532Z,50.30
2017-08-30T14:08:03.041Z,51.00
2017-08-30T14:10:30.515Z,49.70
2017-08-30T14:12:58.047Z,51.50
2017-08-30T14:15:25.568Z,53.00
2017-08-30T14:17:53.116Z,54.10
2017-08-30T14:20:20.598Z,55.00
2017-08-30T14:22:48.107Z,56.20
2017-08-30T14:25:15.645Z,55.80
2017-08-30T14:27:43.287Z,56.40
2017-08-30T14:30:10.827Z,56.40
2017-08-30T14:32:38.376Z,56.70
2017-08-30T14:35:05.915Z,58.50
2017-08-30T14:37:33.373Z,57.50
2017-08-30T14:40:00.836Z,58.50
2017-08-30T14:42:28.451Z,58.50
2017-08-30T14:44:55.995Z,59.40
2017-08-30T14:47:24.219Z,60.50
2017-08-30T14:49:51.892Z,60.40
2017-08-30T14:52:19.448Z,61.00
2017-08-30T14:54:46.985Z,63.00
2017-08-30T14:57:14.478Z,62.80
2017-08-30T14:59:41.940Z,63.70
2017-08-30T15:02:09.402Z,64.40
2017-08-30T15:04:36.950Z,64.00
2017-08-30T15:07:04.448Z,65.30
2017-08-30T15:09:31.896Z,66.40
2017-08-30T15:11:59.391Z,66.50
2017-08-30T15:14:27.607Z,67.80
2017-08-30T15:16:55.178Z,67.80
2017-08-30T15:19:22.640Z,67.80
2017-08-30T15:21:50.175Z,68.00
2017-08-30T15:24:17.712Z,67.30
2017-08-30T15:26:45.260Z,68.40
2017-08-30T15:29:12.895Z,67.00
2017-08-30T15:31:40.443Z,66.30
2017-08-30T15:34:07.988Z,66.40
2017-08-30T15:36:35.629Z,68.30
2017-08-30T15:39:03.084Z,65.00
2017-08-30T15:41:30.719Z,65.10
2017-08-30T15:43:58.199Z,66.10
2017-08-30T15:46:25.699Z,66.60
2017-08-30T15:48:53.155Z,68.00
2017-08-30T15:51:20.689Z,70.40
2017-08-30T15:53:48.152Z,69.50
2017-08-30T15:56:16.395Z,72.00
2017-08-30T15:58:44.035Z,72.00
2017-08-30T16:01:11.584Z,70.60
2017-08-30T16:03:39.121Z,71.50
2017-08-30T16:06:06.765Z,71.60
2017-08-30T16:08:34.232Z,71.70
2017-08-30T16:11:01.692Z,72.20
2017-08-30T16:13:29.175Z,72.50
2017-08-30T16:15:56.736Z,72.10
2017-08-30T16:18:24.276Z,72.80
2017-08-30T16:20:51.831Z,73.80
2017-08-30T16:23:19.289Z,74.60
2017-08-30T16:25:46.788Z,73.70
2017-08-30T16:28:14.431Z,74.30
2017-08-30T16:30:41.981Z,75.00
2017-08-30T16:33:09.435Z,75.60
2017-08-30T16:35:37.173Z,76.10
2017-08-30T16:38:04.648Z,76.30
2017-08-30T16:40:32.103Z,76.90
2017-08-30T16:42:59.580Z,76.10
2017-08-30T16:45:27.124Z,76.60
2017-08-30T16:47:54.591Z,77.80
2017-08-30T16:50:22.314Z,78.10
2017-08-30T16:52:51.244Z,78.50
2017-08-30T16:55:18.732Z,80.00
2017-08-30T16:57:46.479Z,79.50
2017-08-30T17:00:13.935Z,81.10
2017-08-30T17:02:41.391Z,80.60
2017-08-30T17:05:08.861Z,81.00
2017-08-30T17:07:36.348Z,81.10
2017-08-30T17:10:03.813Z,80.70
2017-08-30T17:12:31.455Z,81.60
2017-08-30T17:14:58.976Z,82.60
2017-08-30T17:17:26.432Z,82.90
2017-08-30T17:19:54.013Z,83.50
2017-08-30T17:22:21.495Z,82.60
2017-08-30T17:24:49.044Z,83.70
2017-08-30T17:27:17.413Z,83.10
2017-08-30T17:29:45.785Z,84.20
2017-08-30T17:32:13.248Z,81.80
2017-08-30T17:34:40.711Z,81.80
2017-08-30T17:37:13.935Z,83.10
2017-08-30T17:39:41.482Z,83.10
2017-08-30T17:42:09.018Z,82.90
2017-08-30T17:44:36.559Z,83.10
2017-08-30T17:47:04.113Z,83.70
2017-08-30T17:49:31.559Z,83.90
2017-08-30T17:51:59.088Z,83.70
2017-08-30T17:54:26.629Z,83.50
2017-08-30T17:56:54.207Z,84.30
2017-08-30T17:59:22.901Z,84.80
2017-08-30T18:01:50.352Z,84.80
2017-08-30T18:04:18.136Z,85.80
2017-08-30T18:06:45.681Z,86.90
2017-08-30T18:09:13.136Z,86.90
2017-08-30T18:11:41.387Z,87.80
2017-08-30T18:14:08.932Z,87.80
2017-08-30T18:16:36.423Z,89.00
2017-08-30T18:19:03.877Z,89.30
2017-08-30T18:21:31.356Z,90.60
2017-08-30T18:23:58.903Z,90.50
2017-08-30T18:26:26.359Z,90.60
2017-08-30T18:28:54.590Z,91.60
2017-08-30T18:31:22.055Z,91.60
2017-08-30T18:33:49.584Z,91.00
2017-08-30T18:36:20.689Z,92.00
2017-08-30T18:38:51.115Z,92.00
2017-08-30T18:41:18.663Z,91.60
2017-08-30T18:43:46.140Z,91.80
2017-08-30T18:46:13.658Z,92.30
2017-08-30T18:48:41.118Z,92.50
2017-08-30T18:51:08.579Z,92.70
2017-08-30T18:56:03.664Z,92.80
2017-08-30T18:58:31.169Z,93.30
2017-08-30T19:00:58.705Z,93.30
2017-08-30T19:03:26.244Z,93.20
2017-08-30T19:05:54.635Z,93.30
2017-08-30T19:08:22.164Z,93.60
2017-08-30T19:10:49.644Z,93.60
2017-08-30T19:13:17.137Z,93.60
2017-08-30T19:15:44.854Z,93.50
2017-08-30T19:18:12.376Z,93.30
2017-08-30T19:20:41.277Z,93.50
2017-08-30T19:23:08.796Z,93.60
2017-08-30T19:25:36.295Z,93.90
2017-08-30T19:28:03.744Z,94.10
2017-08-30T19:30:32.754Z,94.00
2017-08-30T19:33:00.253Z,94.30
2017-08-30T19:35:27.704Z,94.10
2017-08-30T19:37:55.184Z,94.40
2017-08-30T19:40:22.643Z,94.40
2017-08-30T19:42:50.102Z,94.70
2017-08-30T19:45:17.748Z,96.30
2017-08-30T19:47:45.307Z,95.50
2017-08-30T19:50:12.756Z,96.20
2017-08-30T19:52:40.213Z,98.70
2017-08-30T19:55:07.936Z,98.10
2017-08-30T19:57:35.408Z,99.90
2017-08-30T20:00:03.177Z,99.90
2017-08-30T20:02:30.711Z,99.90
2017-08-30T20:04:58.167Z,99.90
2017-08-30T20:07:25.620Z,99.90
2017-08-30T20:09:53.084Z,99.90
2017-08-30T20:12:20.579Z,99.90
2017-08-30T20:14:48.323Z,99.90
2017-08-30T20:17:17.044Z,99.90
2017-08-30T20:19:44.531Z,99.90
2017-08-30T20:22:12.407Z,99.90
2017-08-30T20:24:40.112Z,99.90
2017-08-30T20:27:07.575Z,99.90
2017-08-30T20:29:35.135Z,99.90
2017-08-30T20:32:03.375Z,99.90
2017-08-30T20:34:30.831Z,99.90
2017-08-30T20:37:01.297Z,99.90
2017-08-30T20:39:28.875Z,99.90
2017-08-30T20:41:56.428Z,99.90
2017-08-30T20:44:23.875Z,99.90
2017-08-30T20:46:51.413Z,99.90
2017-08-30T20:49:18.955Z,99.90
2017-08-30T20:51:46.595Z,99.90
2017-08-30T20:54:16.816Z,99.90
2017-08-30T20:56:48.074Z,99.90
2017-08-30T20:59:15.528Z,99.90
2017-08-30T21:01:46.400Z,99.90
2017-08-30T21:04:13.944Z,99.90
2017-08-30T21:06:41.483Z,99.90
2017-08-30T21:09:09.032Z,99.90
2017-08-30T21:11:36.492Z,99.90
2017-08-30T21:14:04.886Z,99.90
2017-08-30T21:16:32.333Z,99.90
2017-08-30T21:18:59.788Z,99.90
2017-08-30T21:21:27.463Z,99.90
2017-08-30T21:23:55.007Z,99.90
2017-08-30T21:26:22.556Z,99.90
2017-08-30T21:28:50.096Z,99.90
2017-08-30T21:48:37.611Z,99.90
2017-08-30T21:51:05.144Z,99.90
2017-08-30T21:53:32.600Z,99.90
2017-08-30T21:56:00.080Z,99.90
2017-08-30T21:58:27.555Z,99.90
2017-08-30T22:00:55.055Z,99.90
2017-08-30T22:03:22.606Z,99.90
2017-08-30T22:05:50.251Z,99.90
2017-08-30T22:08:17.795Z,99.90
2017-08-30T22:10:45.344Z,99.90
2017-08-30T22:13:12.924Z,99.90
2017-08-30T22:15:40.415Z,99.90
2017-08-30T22:18:08.077Z,99.90
2017-08-30T22:20:35.523Z,99.90
2017-08-30T22:23:02.976Z,99.90
2017-08-30T22:25:30.445Z,99.90
2017-08-30T22:27:57.962Z,99.90
2017-08-30T22:30:25.399Z,99.90
2017-08-30T22:32:52.932Z,99.90
2017-08-30T22:35:20.530Z,99.90
2017-08-30T22:37:48.003Z,99.90
2017-08-30T22:40:15.459Z,99.90
2017-08-30T22:42:42.996Z,99.90
2017-08-30T22:45:10.543Z,99.90
2017-08-30T22:47:38.088Z,99.90
2017-08-30T22:50:05.564Z,99.90
2017-08-30T22:52:33.024Z,99.90
2017-08-30T22:55:00.515Z,99.90
2017-08-30T22:57:28.051Z,99.90
2017-08-30T22:59:55.512Z,99.90
2017-08-30T23:02:23.727Z,99.90
2017-08-30T23:04:51.203Z,99.90
2017-08-30T23:07:18.744Z,99.90
2017-08-30T23:09:46.396Z,99.90
2017-08-30T23:12:13.927Z,99.90
2017-08-30T23:14:41.391Z,99.90
2017-08-30T23:17:08.855Z,99.90
2017-08-30T23:19:36.308Z,99.90
2017-08-30T23:22:03.800Z,99.90
2017-08-30T23:24:31.259Z,99.90
2017-08-30T23:26:58.728Z,99.90
2017-08-30T23:29:26.372Z,99.90
2017-08-30T23:31:53.827Z,99.90
2017-08-30T23:34:21.360Z,99.90
2017-08-30T23:36:48.900Z,99.90
2017-08-30T23:39:16.355Z,99.90
2017-08-30T23:41:44.587Z,99.90
2017-08-30T23:44:12.147Z,99.90
2017-08-30T23:46:39.600Z,99.90
2017-08-30T23:49:07.128Z,99.90
2017-08-30T23:51:34.599Z,99.90
2017-08-30T23:54:02.060Z,99.90
2017-08-30T23:56:29.560Z,99.90
2017-08-30T23:59:01.434Z,99.90
